sensor_id;sensor_type;location;lat;lon;timestamp;pressure;altitude;pressure_sealevel;temperature;humidity
61128;BME280;47013;42.664;23.242;2022-12-11T00:01:20;92027.47;;;9.83;100.00
61128;BME280;47013;42.664;23.242;2022-12-11T00:03:45;92027.00;;;9.84;100.00
61128;BME280;47013;42.664;23.242;2022-12-11T00:06:12;92028.81;;;9.87;100.00
61128;BME280;47013;42.664;23.242;2022-12-11T00:08:38;92017.25;;;9.87;100.00
61128;BME280;47013;42.664;23.242;2022-12-11T00:11:03;92003.19;;;9.61;100.00
61128;BME280;47013;42.664;23.242;2022-12-11T00:13:29;92025.38;;;9.46;100.00
61128;BME280;47013;42.664;23.242;2022-12-11T00:15:54;91991.59;;;9.51;100.00
61128;BME280;47013;42.664;23.242;2022-12-11T00:18:19;92025.50;;;9.43;100.00
61128;BME280;47013;42.664;23.242;2022-12-11T00:20:45;92011.41;;;9.48;100.00
61128;BME280;47013;42.664;23.242;2022-12-11T00:23:10;92008.44;;;9.55;100.00
61128;BME280;47013;42.664;23.242;2022-12-11T00:25:45;92008.75;;;9.57;100.00
61128;BME280;47013;42.664;23.242;2022-12-11T00:28:11;91994.91;;;9.55;100.00
61128;BME280;47013;42.664;23.242;2022-12-11T00:30:37;92006.03;;;9.57;100.00
61128;BME280;47013;42.664;23.242;2022-12-11T00:33:03;92008.88;;;9.54;100.00
61128;BME280;47013;42.664;23.242;2022-12-11T00:35:28;92006.78;;;9.58;100.00
61128;BME280;47013;42.664;23.242;2022-12-11T00:37:53;91976.44;;;9.63;100.00
61128;BME280;47013;42.664;23.242;2022-12-11T00:40:19;91976.91;;;9.70;100.00
61128;BME280;47013;42.664;23.242;2022-12-11T00:42:44;91993.00;;;9.65;100.00
61128;BME280;47013;42.664;23.242;2022-12-11T00:45:10;91988.19;;;9.69;100.00
61128;BME280;47013;42.664;23.242;2022-12-11T00:47:35;91990.75;;;9.72;100.00
61128;BME280;47013;42.664;23.242;2022-12-11T00:50:00;92003.38;;;9.75;100.00
61128;BME280;47013;42.664;23.242;2022-12-11T00:52:26;91991.78;;;9.75;100.00
61128;BME280;47013;42.664;23.242;2022-12-11T00:54:51;91982.63;;;9.72;100.00
61128;BME280;47013;42.664;23.242;2022-12-11T00:57:17;92001.13;;;9.74;100.00
61128;BME280;47013;42.664;23.242;2022-12-11T00:59:42;91992.53;;;9.75;100.00
61128;BME280;47013;42.664;23.242;2022-12-11T01:02:07;91986.88;;;9.83;100.00
61128;BME280;47013;42.664;23.242;2022-12-11T01:04:34;91984.31;;;9.79;100.00
61128;BME280;47013;42.664;23.242;2022-12-11T01:06:59;91988.81;;;9.82;100.00
61128;BME280;47013;42.664;23.242;2022-12-11T01:09:24;91985.66;;;9.84;100.00
61128;BME280;47013;42.664;23.242;2022-12-11T01:12:08;91967.00;;;9.67;100.00
61128;BME280;47013;42.664;23.242;2022-12-11T01:14:33;91995.69;;;9.65;100.00
61128;BME280;47013;42.664;23.242;2022-12-11T01:16:59;91972.22;;;9.62;100.00
61128;BME280;47013;42.664;23.242;2022-12-11T01:19:24;92003.59;;;9.50;100.00
61128;BME280;47013;42.664;23.242;2022-12-11T01:21:49;91975.81;;;9.59;100.00
61128;BME280;47013;42.664;23.242;2022-12-11T01:24:14;91973.72;;;9.54;100.00
61128;BME280;47013;42.664;23.242;2022-12-11T01:26:39;91980.63;;;9.55;100.00
61128;BME280;47013;42.664;23.242;2022-12-11T01:29:05;91936.81;;;10.05;100.00
61128;BME280;47013;42.664;23.242;2022-12-11T01:31:30;91904.97;;;11.07;100.00
61128;BME280;47013;42.664;23.242;2022-12-11T01:33:55;91917.63;;;11.43;100.00
61128;BME280;47013;42.664;23.242;2022-12-11T01:36:21;91966.38;;;11.19;100.00
61128;BME280;47013;42.664;23.242;2022-12-11T01:38:47;91983.75;;;11.03;100.00
61128;BME280;47013;42.664;23.242;2022-12-11T01:41:12;91954.69;;;11.88;100.00
61128;BME280;47013;42.664;23.242;2022-12-11T01:46:39;91907.75;;;12.12;97.03
61128;BME280;47013;42.664;23.242;2022-12-11T01:49:05;91925.59;;;12.03;98.93
61128;BME280;47013;42.664;23.242;2022-12-11T01:51:32;91915.72;;;11.91;96.91
61128;BME280;47013;42.664;23.242;2022-12-11T01:53:59;91902.34;;;11.88;98.40
61128;BME280;47013;42.664;23.242;2022-12-11T01:56:26;91899.34;;;11.76;97.70
61128;BME280;47013;42.664;23.242;2022-12-11T01:58:55;91897.66;;;11.88;95.04
61128;BME280;47013;42.664;23.242;2022-12-11T02:01:26;91917.59;;;11.85;96.32
61128;BME280;47013;42.664;23.242;2022-12-11T02:03:53;91895.19;;;11.66;98.33
61128;BME280;47013;42.664;23.242;2022-12-11T02:06:32;91908.94;;;11.63;97.33
61128;BME280;47013;42.664;23.242;2022-12-11T02:08:58;91911.44;;;11.75;94.93
61128;BME280;47013;42.664;23.242;2022-12-11T02:11:25;91884.03;;;11.64;96.15
61128;BME280;47013;42.664;23.242;2022-12-11T02:13:56;91867.22;;;11.51;98.82
61128;BME280;47013;42.664;23.242;2022-12-11T02:16:36;91885.13;;;11.58;96.16
61128;BME280;47013;42.664;23.242;2022-12-11T02:21:41;91857.19;;;11.66;96.48
61128;BME280;47013;42.664;23.242;2022-12-11T02:29:07;91832.59;;;12.08;93.13
61128;BME280;47013;42.664;23.242;2022-12-11T02:36:27;91848.09;;;12.32;97.73
61128;BME280;47013;42.664;23.242;2022-12-11T02:38:55;91834.63;;;12.37;96.02
61128;BME280;47013;42.664;23.242;2022-12-11T02:41:20;91832.19;;;12.54;95.22
61128;BME280;47013;42.664;23.242;2022-12-11T02:43:47;91831.66;;;12.50;95.08
61128;BME280;47013;42.664;23.242;2022-12-11T02:46:14;91826.84;;;12.60;92.90
61128;BME280;47013;42.664;23.242;2022-12-11T02:48:41;91814.19;;;12.72;89.60
61128;BME280;47013;42.664;23.242;2022-12-11T02:51:07;91848.88;;;12.91;87.57
61128;BME280;47013;42.664;23.242;2022-12-11T02:53:34;91813.50;;;13.06;85.52
61128;BME280;47013;42.664;23.242;2022-12-11T02:56:05;91813.56;;;13.12;83.65
61128;BME280;47013;42.664;23.242;2022-12-11T02:58:32;91811.25;;;13.05;85.97
61128;BME280;47013;42.664;23.242;2022-12-11T03:00:58;91818.25;;;13.11;85.48
61128;BME280;47013;42.664;23.242;2022-12-11T03:03:23;91814.50;;;13.09;85.57
61128;BME280;47013;42.664;23.242;2022-12-11T03:05:49;91816.97;;;13.07;86.26
61128;BME280;47013;42.664;23.242;2022-12-11T03:08:14;91823.69;;;13.11;86.33
61128;BME280;47013;42.664;23.242;2022-12-11T03:10:43;91792.00;;;13.08;86.72
61128;BME280;47013;42.664;23.242;2022-12-11T03:13:08;91828.38;;;13.11;86.44
61128;BME280;47013;42.664;23.242;2022-12-11T03:15:58;91812.81;;;13.11;87.68
61128;BME280;47013;42.664;23.242;2022-12-11T03:18:21;91796.50;;;13.11;87.08
61128;BME280;47013;42.664;23.242;2022-12-11T03:21:01;91821.81;;;13.17;87.51
61128;BME280;47013;42.664;23.242;2022-12-11T03:23:30;91809.34;;;13.25;86.11
61128;BME280;47013;42.664;23.242;2022-12-11T03:25:58;91768.13;;;13.33;85.00
61128;BME280;47013;42.664;23.242;2022-12-11T03:28:29;91798.34;;;13.35;84.89
61128;BME280;47013;42.664;23.242;2022-12-11T03:30:55;91791.41;;;13.34;85.00
61128;BME280;47013;42.664;23.242;2022-12-11T03:33:24;91825.81;;;13.37;84.88
61128;BME280;47013;42.664;23.242;2022-12-11T03:35:52;91798.53;;;13.51;82.66
61128;BME280;47013;42.664;23.242;2022-12-11T03:38:20;91784.66;;;13.49;83.11
61128;BME280;47013;42.664;23.242;2022-12-11T03:40:48;91818.50;;;13.43;85.07
61128;BME280;47013;42.664;23.242;2022-12-11T03:43:15;91818.69;;;13.39;83.83
61128;BME280;47013;42.664;23.242;2022-12-11T03:45:41;91825.16;;;13.42;83.23
61128;BME280;47013;42.664;23.242;2022-12-11T03:48:07;91807.03;;;13.39;83.04
61128;BME280;47013;42.664;23.242;2022-12-11T03:50:33;91835.00;;;13.39;82.77
61128;BME280;47013;42.664;23.242;2022-12-11T03:52:59;91837.56;;;13.43;82.58
61128;BME280;47013;42.664;23.242;2022-12-11T03:55:25;91832.84;;;13.43;81.51
61128;BME280;47013;42.664;23.242;2022-12-11T03:57:51;91857.34;;;13.43;82.29
61128;BME280;47013;42.664;23.242;2022-12-11T04:00:17;91884.31;;;13.41;81.41
61128;BME280;47013;42.664;23.242;2022-12-11T04:02:43;91891.53;;;13.44;80.71
61128;BME280;47013;42.664;23.242;2022-12-11T04:05:09;91874.50;;;13.49;81.00
61128;BME280;47013;42.664;23.242;2022-12-11T04:07:34;91888.22;;;13.40;82.65
61128;BME280;47013;42.664;23.242;2022-12-11T04:10:00;91867.31;;;13.32;83.75
61128;BME280;47013;42.664;23.242;2022-12-11T04:12:25;91894.34;;;13.35;82.85
61128;BME280;47013;42.664;23.242;2022-12-11T04:14:50;91898.66;;;13.27;84.11
61128;BME280;47013;42.664;23.242;2022-12-11T04:17:28;91886.97;;;13.21;83.95
61128;BME280;47013;42.664;23.242;2022-12-11T04:20:12;91916.00;;;13.15;84.80
61128;BME280;47013;42.664;23.242;2022-12-11T04:22:56;91922.22;;;13.15;84.39
61128;BME280;47013;42.664;23.242;2022-12-11T04:25:40;91918.72;;;13.15;82.41
61128;BME280;47013;42.664;23.242;2022-12-11T04:28:06;91942.88;;;13.22;82.44
61128;BME280;47013;42.664;23.242;2022-12-11T04:30:31;91957.13;;;13.17;82.18
61128;BME280;47013;42.664;23.242;2022-12-11T04:32:56;91962.41;;;13.20;82.17
61128;BME280;47013;42.664;23.242;2022-12-11T04:35:22;91943.81;;;13.19;82.54
61128;BME280;47013;42.664;23.242;2022-12-11T04:37:47;91960.91;;;13.19;82.23
61128;BME280;47013;42.664;23.242;2022-12-11T04:40:13;91958.84;;;13.29;79.25
61128;BME280;47013;42.664;23.242;2022-12-11T04:42:40;91973.00;;;13.33;79.02
61128;BME280;47013;42.664;23.242;2022-12-11T04:45:06;92024.25;;;13.35;77.92
61128;BME280;47013;42.664;23.242;2022-12-11T04:47:33;92002.66;;;13.31;78.18
61128;BME280;47013;42.664;23.242;2022-12-11T04:49:58;92037.09;;;13.34;76.17
61128;BME280;47013;42.664;23.242;2022-12-11T04:52:24;92006.22;;;13.37;74.56
61128;BME280;47013;42.664;23.242;2022-12-11T04:54:49;91989.03;;;13.46;74.16
61128;BME280;47013;42.664;23.242;2022-12-11T04:57:15;92029.78;;;13.40;75.58
61128;BME280;47013;42.664;23.242;2022-12-11T04:59:40;92023.22;;;13.47;73.18
61128;BME280;47013;42.664;23.242;2022-12-11T05:02:06;92042.75;;;13.45;74.63
61128;BME280;47013;42.664;23.242;2022-12-11T05:04:32;92009.97;;;13.40;75.71
61128;BME280;47013;42.664;23.242;2022-12-11T05:06:58;92016.47;;;13.42;76.56
61128;BME280;47013;42.664;23.242;2022-12-11T05:09:24;92014.28;;;13.46;75.50
61128;BME280;47013;42.664;23.242;2022-12-11T05:11:50;92017.09;;;13.37;77.17
61128;BME280;47013;42.664;23.242;2022-12-11T05:14:15;92003.41;;;13.32;78.38
61128;BME280;47013;42.664;23.242;2022-12-11T05:16:41;91988.31;;;13.31;77.83
61128;BME280;47013;42.664;23.242;2022-12-11T05:19:06;91991.03;;;13.31;79.08
61128;BME280;47013;42.664;23.242;2022-12-11T05:21:31;92009.41;;;13.21;79.66
61128;BME280;47013;42.664;23.242;2022-12-11T05:23:56;92003.69;;;13.19;79.90
61128;BME280;47013;42.664;23.242;2022-12-11T05:26:21;91998.34;;;13.24;78.81
61128;BME280;47013;42.664;23.242;2022-12-11T05:28:50;91988.38;;;13.21;80.26
61128;BME280;47013;42.664;23.242;2022-12-11T05:31:17;91989.47;;;13.15;79.89
61128;BME280;47013;42.664;23.242;2022-12-11T05:33:43;91973.06;;;13.09;80.79
61128;BME280;47013;42.664;23.242;2022-12-11T05:36:12;91979.81;;;13.14;79.96
61128;BME280;47013;42.664;23.242;2022-12-11T05:38:39;91974.94;;;13.18;80.67
61128;BME280;47013;42.664;23.242;2022-12-11T05:41:05;91981.03;;;13.13;81.42
61128;BME280;47013;42.664;23.242;2022-12-11T05:43:31;91964.72;;;13.13;82.22
61128;BME280;47013;42.664;23.242;2022-12-11T05:46:07;91962.94;;;13.10;83.10
61128;BME280;47013;42.664;23.242;2022-12-11T05:48:33;91945.84;;;13.09;82.61
61128;BME280;47013;42.664;23.242;2022-12-11T05:50:59;91926.72;;;13.04;82.95
61128;BME280;47013;42.664;23.242;2022-12-11T05:53:25;91947.56;;;13.07;81.92
61128;BME280;47013;42.664;23.242;2022-12-11T05:55:50;91960.50;;;13.12;81.17
61128;BME280;47013;42.664;23.242;2022-12-11T05:58:16;91971.94;;;13.16;80.15
61128;BME280;47013;42.664;23.242;2022-12-11T06:00:41;91943.72;;;13.28;78.98
61128;BME280;47013;42.664;23.242;2022-12-11T06:03:06;91949.34;;;13.24;79.16
61128;BME280;47013;42.664;23.242;2022-12-11T06:05:36;91927.84;;;13.26;77.85
61128;BME280;47013;42.664;23.242;2022-12-11T06:08:01;91991.31;;;13.33;78.07
61128;BME280;47013;42.664;23.242;2022-12-11T06:10:27;91979.75;;;13.38;75.82
61128;BME280;47013;42.664;23.242;2022-12-11T06:12:52;91958.41;;;13.66;73.09
61128;BME280;47013;42.664;23.242;2022-12-11T06:15:17;91981.03;;;13.72;73.17
61128;BME280;47013;42.664;23.242;2022-12-11T06:17:42;91958.03;;;13.73;72.54
61128;BME280;47013;42.664;23.242;2022-12-11T06:20:08;91975.84;;;13.74;72.35
61128;BME280;47013;42.664;23.242;2022-12-11T06:22:33;91992.13;;;13.68;73.97
61128;BME280;47013;42.664;23.242;2022-12-11T06:24:59;92002.72;;;13.66;75.80
61128;BME280;47013;42.664;23.242;2022-12-11T06:27:24;91999.00;;;13.49;79.06
61128;BME280;47013;42.664;23.242;2022-12-11T06:29:49;91992.88;;;13.39;80.80
61128;BME280;47013;42.664;23.242;2022-12-11T06:32:14;92014.38;;;13.37;79.97
61128;BME280;47013;42.664;23.242;2022-12-11T06:34:40;92002.00;;;13.36;78.58
61128;BME280;47013;42.664;23.242;2022-12-11T06:37:05;92012.03;;;13.45;78.56
61128;BME280;47013;42.664;23.242;2022-12-11T06:39:31;92037.38;;;13.51;78.30
61128;BME280;47013;42.664;23.242;2022-12-11T06:41:56;91980.41;;;13.47;78.84
61128;BME280;47013;42.664;23.242;2022-12-11T06:44:21;92017.03;;;13.46;76.83
61128;BME280;47013;42.664;23.242;2022-12-11T06:46:47;92021.78;;;13.51;75.96
61128;BME280;47013;42.664;23.242;2022-12-11T06:49:12;92022.25;;;13.50;76.06
61128;BME280;47013;42.664;23.242;2022-12-11T06:51:37;92061.25;;;13.56;77.33
61128;BME280;47013;42.664;23.242;2022-12-11T06:54:03;92017.03;;;13.46;79.38
61128;BME280;47013;42.664;23.242;2022-12-11T06:56:28;92018.25;;;13.45;80.50
61128;BME280;47013;42.664;23.242;2022-12-11T06:58:53;92010.16;;;13.36;79.85
61128;BME280;47013;42.664;23.242;2022-12-11T07:01:22;92002.94;;;13.33;80.18
61128;BME280;47013;42.664;23.242;2022-12-11T07:03:48;92030.53;;;13.26;81.21
61128;BME280;47013;42.664;23.242;2022-12-11T07:06:14;91994.84;;;13.39;76.78
61128;BME280;47013;42.664;23.242;2022-12-11T07:08:39;92021.59;;;13.40;79.62
61128;BME280;47013;42.664;23.242;2022-12-11T07:11:05;92004.72;;;13.36;79.35
61128;BME280;47013;42.664;23.242;2022-12-11T07:13:31;92023.97;;;13.33;81.51
61128;BME280;47013;42.664;23.242;2022-12-11T07:15:57;92015.06;;;13.32;81.03
61128;BME280;47013;42.664;23.242;2022-12-11T07:18:24;92019.81;;;13.37;79.99
61128;BME280;47013;42.664;23.242;2022-12-11T07:20:49;92031.75;;;13.40;80.04
61128;BME280;47013;42.664;23.242;2022-12-11T07:23:14;92050.03;;;13.39;78.69
61128;BME280;47013;42.664;23.242;2022-12-11T07:25:40;92009.97;;;13.40;78.02
61128;BME280;47013;42.664;23.242;2022-12-11T07:28:05;92025.00;;;13.50;79.66
61128;BME280;47013;42.664;23.242;2022-12-11T07:30:30;92032.03;;;13.56;79.67
61128;BME280;47013;42.664;23.242;2022-12-11T07:32:55;92042.66;;;13.54;78.48
61128;BME280;47013;42.664;23.242;2022-12-11T07:35:21;92048.66;;;13.58;79.13
61128;BME280;47013;42.664;23.242;2022-12-11T07:37:46;92064.31;;;13.49;80.94
61128;BME280;47013;42.664;23.242;2022-12-11T07:40:11;92084.31;;;13.46;81.92
61128;BME280;47013;42.664;23.242;2022-12-11T07:42:37;92075.13;;;13.58;77.74
61128;BME280;47013;42.664;23.242;2022-12-11T07:45:03;92112.88;;;13.65;74.37
61128;BME280;47013;42.664;23.242;2022-12-11T07:47:28;92075.97;;;13.94;70.49
61128;BME280;47013;42.664;23.242;2022-12-11T07:49:53;92070.59;;;13.99;69.56
61128;BME280;47013;42.664;23.242;2022-12-11T07:52:19;92070.88;;;14.01;70.10
61128;BME280;47013;42.664;23.242;2022-12-11T07:54:44;92061.56;;;14.08;74.42
61128;BME280;47013;42.664;23.242;2022-12-11T07:57:09;92107.88;;;13.93;76.32
61128;BME280;47013;42.664;23.242;2022-12-11T07:59:34;92097.00;;;13.93;73.55
61128;BME280;47013;42.664;23.242;2022-12-11T08:02:00;92081.31;;;14.03;70.39
61128;BME280;47013;42.664;23.242;2022-12-11T08:04:25;92096.69;;;14.21;68.41
61128;BME280;47013;42.664;23.242;2022-12-11T08:06:50;92093.78;;;14.24;70.58
61128;BME280;47013;42.664;23.242;2022-12-11T08:09:15;92093.03;;;14.24;74.19
61128;BME280;47013;42.664;23.242;2022-12-11T08:11:41;92108.53;;;14.03;76.87
61128;BME280;47013;42.664;23.242;2022-12-11T08:14:06;92105.47;;;14.10;76.92
61128;BME280;47013;42.664;23.242;2022-12-11T08:16:32;92107.97;;;14.13;70.39
61128;BME280;47013;42.664;23.242;2022-12-11T08:18:58;92114.09;;;14.23;72.48
61128;BME280;47013;42.664;23.242;2022-12-11T08:21:24;92139.63;;;14.26;73.73
61128;BME280;47013;42.664;23.242;2022-12-11T08:23:50;92125.63;;;14.33;73.88
61128;BME280;47013;42.664;23.242;2022-12-11T08:26:17;92134.25;;;14.31;74.48
61128;BME280;47013;42.664;23.242;2022-12-11T08:28:43;92130.34;;;14.17;76.67
61128;BME280;47013;42.664;23.242;2022-12-11T08:31:09;92137.41;;;14.09;79.20
61128;BME280;47013;42.664;23.242;2022-12-11T08:33:36;92126.69;;;14.06;77.83
61128;BME280;47013;42.664;23.242;2022-12-11T08:36:12;92131.56;;;14.02;77.30
61128;BME280;47013;42.664;23.242;2022-12-11T08:38:37;92137.41;;;14.09;80.65
61128;BME280;47013;42.664;23.242;2022-12-11T08:41:07;92132.72;;;13.95;83.37
61128;BME280;47013;42.664;23.242;2022-12-11T08:43:32;92129.69;;;13.93;84.55
61128;BME280;47013;42.664;23.242;2022-12-11T08:45:58;92134.66;;;13.80;85.87
61128;BME280;47013;42.664;23.242;2022-12-11T08:48:23;92141.91;;;13.68;88.03
61128;BME280;47013;42.664;23.242;2022-12-11T08:50:48;92138.13;;;13.66;90.55
61128;BME280;47013;42.664;23.242;2022-12-11T08:53:13;92139.41;;;13.41;92.76
61128;BME280;47013;42.664;23.242;2022-12-11T08:55:38;92146.25;;;13.36;93.46
61128;BME280;47013;42.664;23.242;2022-12-11T08:58:04;92143.06;;;13.38;92.40
61128;BME280;47013;42.664;23.242;2022-12-11T09:00:29;92141.56;;;13.13;93.38
61128;BME280;47013;42.664;23.242;2022-12-11T09:02:54;92126.91;;;13.19;94.82
61128;BME280;47013;42.664;23.242;2022-12-11T09:05:20;92130.47;;;13.25;91.07
61128;BME280;47013;42.664;23.242;2022-12-11T09:07:45;92130.50;;;13.40;92.52
61128;BME280;47013;42.664;23.242;2022-12-11T09:10:10;92111.75;;;13.42;90.29
61128;BME280;47013;42.664;23.242;2022-12-11T09:12:35;92125.53;;;13.53;89.34
61128;BME280;47013;42.664;23.242;2022-12-11T09:15:01;92118.78;;;13.64;86.15
61128;BME280;47013;42.664;23.242;2022-12-11T09:17:26;92116.25;;;13.75;87.75
61128;BME280;47013;42.664;23.242;2022-12-11T09:19:55;92134.50;;;13.83;82.40
61128;BME280;47013;42.664;23.242;2022-12-11T09:22:23;92118.03;;;13.93;77.87
61128;BME280;47013;42.664;23.242;2022-12-11T09:24:51;92110.31;;;14.06;81.05
61128;BME280;47013;42.664;23.242;2022-12-11T09:27:16;92120.09;;;14.12;79.61
61128;BME280;47013;42.664;23.242;2022-12-11T09:29:42;92119.44;;;14.17;79.83
61128;BME280;47013;42.664;23.242;2022-12-11T09:32:07;92116.06;;;14.23;79.73
61128;BME280;47013;42.664;23.242;2022-12-11T09:34:32;92110.69;;;14.28;78.04
61128;BME280;47013;42.664;23.242;2022-12-11T09:36:57;92100.34;;;14.32;78.36
61128;BME280;47013;42.664;23.242;2022-12-11T09:39:23;92088.41;;;14.30;79.05
61128;BME280;47013;42.664;23.242;2022-12-11T09:44:29;92096.03;;;14.26;78.77
61128;BME280;47013;42.664;23.242;2022-12-11T09:46:55;92085.88;;;14.26;78.15
61128;BME280;47013;42.664;23.242;2022-12-11T09:49:25;92081.41;;;14.43;76.05
61128;BME280;47013;42.664;23.242;2022-12-11T09:54:43;92069.34;;;14.65;76.26
61128;BME280;47013;42.664;23.242;2022-12-11T09:59:41;92066.81;;;14.61;77.05
61128;BME280;47013;42.664;23.242;2022-12-11T10:02:21;92069.28;;;14.44;79.10
61128;BME280;47013;42.664;23.242;2022-12-11T10:07:40;92069.41;;;14.35;78.01
61128;BME280;47013;42.664;23.242;2022-12-11T10:15:36;92081.00;;;14.15;76.83
61128;BME280;47013;42.664;23.242;2022-12-11T10:18:04;92089.94;;;14.16;77.75
61128;BME280;47013;42.664;23.242;2022-12-11T10:20:32;92080.34;;;14.06;78.80
61128;BME280;47013;42.664;23.242;2022-12-11T10:23:01;92077.66;;;13.91;80.17
61128;BME280;47013;42.664;23.242;2022-12-11T10:25:31;92088.00;;;13.72;81.67
61128;BME280;47013;42.664;23.242;2022-12-11T10:27:59;92078.22;;;13.66;85.23
61128;BME280;47013;42.664;23.242;2022-12-11T10:30:34;92083.84;;;13.47;87.56
61128;BME280;47013;42.664;23.242;2022-12-11T10:37:54;92072.88;;;13.42;87.82
61128;BME280;47013;42.664;23.242;2022-12-11T10:40:19;92065.72;;;13.30;87.32
61128;BME280;47013;42.664;23.242;2022-12-11T10:42:52;92055.13;;;13.46;88.27
61128;BME280;47013;42.664;23.242;2022-12-11T10:45:18;92064.31;;;13.49;84.35
61128;BME280;47013;42.664;23.242;2022-12-11T10:47:43;92061.06;;;13.60;84.34
61128;BME280;47013;42.664;23.242;2022-12-11T10:50:20;92055.31;;;13.72;83.76
61128;BME280;47013;42.664;23.242;2022-12-11T10:52:45;92061.56;;;13.93;79.85
61128;BME280;47013;42.664;23.242;2022-12-11T10:57:45;92057.53;;;14.03;78.20
61128;BME280;47013;42.664;23.242;2022-12-11T11:00:25;92052.94;;;14.09;78.97
61128;BME280;47013;42.664;23.242;2022-12-11T11:02:52;92055.25;;;14.16;79.94
61128;BME280;47013;42.664;23.242;2022-12-11T11:06:00;92056.94;;;14.14;80.02
61128;BME280;47013;42.664;23.242;2022-12-11T11:08:15;92047.47;;;14.09;79.20
61128;BME280;47013;42.664;23.242;2022-12-11T11:13:19;92053.56;;;14.04;82.61
61128;BME280;47013;42.664;23.242;2022-12-11T11:15:44;92047.84;;;14.02;83.70
61128;BME280;47013;42.664;23.242;2022-12-11T11:18:11;92048.31;;;14.01;82.46
61128;BME280;47013;42.664;23.242;2022-12-11T11:20:43;92045.47;;;14.25;81.50
61128;BME280;47013;42.664;23.242;2022-12-11T11:23:11;92055.41;;;14.28;80.40
61128;BME280;47013;42.664;23.242;2022-12-11T11:25:38;92058.34;;;14.24;79.81
61128;BME280;47013;42.664;23.242;2022-12-11T11:28:05;92052.66;;;14.07;80.81
61128;BME280;47013;42.664;23.242;2022-12-11T11:30:33;92058.19;;;14.13;80.41
61128;BME280;47013;42.664;23.242;2022-12-11T11:33:03;92049.63;;;14.20;80.79
61128;BME280;47013;42.664;23.242;2022-12-11T11:35:30;92049.41;;;14.24;79.91
61128;BME280;47013;42.664;23.242;2022-12-11T11:42:48;92044.72;;;14.24;79.83
61128;BME280;47013;42.664;23.242;2022-12-11T11:45:20;92038.78;;;14.26;80.32
61128;BME280;47013;42.664;23.242;2022-12-11T11:47:53;92044.91;;;14.21;78.91
61128;BME280;47013;42.664;23.242;2022-12-11T11:50:24;92033.25;;;14.20;79.80
61128;BME280;47013;42.664;23.242;2022-12-11T11:53:01;92024.03;;;14.17;80.39
61128;BME280;47013;42.664;23.242;2022-12-11T11:55:41;92020.28;;;14.15;78.74
61128;BME280;47013;42.664;23.242;2022-12-11T12:00:39;92028.19;;;14.13;80.29
61128;BME280;47013;42.664;23.242;2022-12-11T12:03:08;92017.88;;;14.02;80.10
61128;BME280;47013;42.664;23.242;2022-12-11T12:08:11;92025.50;;;13.98;83.07
61128;BME280;47013;42.664;23.242;2022-12-11T12:10:41;92033.59;;;13.93;83.13
61128;BME280;47013;42.664;23.242;2022-12-11T12:16:10;92040.47;;;13.73;84.46
61128;BME280;47013;42.664;23.242;2022-12-11T12:28:51;92027.09;;;13.02;94.97
61128;BME280;47013;42.664;23.242;2022-12-11T12:38:51;92046.75;;;12.58;100.00
61128;BME280;47013;42.664;23.242;2022-12-11T12:48:48;92056.75;;;11.43;94.30
61128;BME280;47013;42.664;23.242;2022-12-11T12:51:15;92058.94;;;11.12;97.52
61128;BME280;47013;42.664;23.242;2022-12-11T12:53:57;92070.53;;;10.76;97.22
61128;BME280;47013;42.664;23.242;2022-12-11T12:56:24;92067.72;;;10.21;98.45
61128;BME280;47013;42.664;23.242;2022-12-11T12:58:51;92069.56;;;9.84;98.00
61128;BME280;47013;42.664;23.242;2022-12-11T13:01:17;92078.03;;;9.33;98.78
61128;BME280;47013;42.664;23.242;2022-12-11T13:06:36;92096.31;;;8.63;100.00
61128;BME280;47013;42.664;23.242;2022-12-11T13:09:16;92089.47;;;8.37;100.00
61128;BME280;47013;42.664;23.242;2022-12-11T13:11:41;92112.47;;;8.28;100.00
61128;BME280;47013;42.664;23.242;2022-12-11T13:14:29;92106.66;;;8.05;100.00
61128;BME280;47013;42.664;23.242;2022-12-11T13:19:49;92140.75;;;7.60;100.00
61128;BME280;47013;42.664;23.242;2022-12-11T13:22:21;92152.59;;;7.37;100.00
61128;BME280;47013;42.664;23.242;2022-12-11T13:32:39;92166.38;;;6.98;100.00
61128;BME280;47013;42.664;23.242;2022-12-11T13:35:05;92175.00;;;6.76;100.00
61128;BME280;47013;42.664;23.242;2022-12-11T13:37:35;92176.38;;;6.52;100.00
61128;BME280;47013;42.664;23.242;2022-12-11T13:40:07;92185.38;;;6.29;100.00
61128;BME280;47013;42.664;23.242;2022-12-11T13:42:47;92186.56;;;6.28;100.00
61128;BME280;47013;42.664;23.242;2022-12-11T13:45:22;92196.81;;;6.33;100.00
61128;BME280;47013;42.664;23.242;2022-12-11T13:47:52;92217.69;;;6.13;100.00
61128;BME280;47013;42.664;23.242;2022-12-11T13:52:51;92226.03;;;5.99;100.00
61128;BME280;47013;42.664;23.242;2022-12-11T13:55:20;92250.41;;;5.91;100.00
61128;BME280;47013;42.664;23.242;2022-12-11T13:57:47;92255.50;;;5.86;100.00
61128;BME280;47013;42.664;23.242;2022-12-11T14:00:18;92265.34;;;5.73;100.00
61128;BME280;47013;42.664;23.242;2022-12-11T14:02:44;92276.47;;;5.75;100.00
61128;BME280;47013;42.664;23.242;2022-12-11T14:05:09;92268.97;;;5.66;100.00
61128;BME280;47013;42.664;23.242;2022-12-11T14:07:43;92284.38;;;5.42;100.00
61128;BME280;47013;42.664;23.242;2022-12-11T14:12:41;92297.41;;;5.24;100.00
61128;BME280;47013;42.664;23.242;2022-12-11T14:15:10;92309.44;;;5.16;100.00
61128;BME280;47013;42.664;23.242;2022-12-11T14:17:38;92316.88;;;5.08;100.00
61128;BME280;47013;42.664;23.242;2022-12-11T14:20:05;92313.13;;;5.02;100.00
61128;BME280;47013;42.664;23.242;2022-12-11T14:22:39;92338.47;;;5.01;100.00
61128;BME280;47013;42.664;23.242;2022-12-11T14:25:12;92339.72;;;4.93;100.00
61128;BME280;47013;42.664;23.242;2022-12-11T14:27:45;92339.38;;;4.91;100.00
61128;BME280;47013;42.664;23.242;2022-12-11T14:30:11;92336.75;;;4.87;100.00